sensor_id;sensor_type;location;lat;lon;timestamp;P1;durP1;ratioP1;P2;durP2;ratioP2
12312;SDS011;6220;53.580;9.758;2022-12-18T00:01:31;12.97;;;9.20;;
12312;SDS011;6220;53.580;9.758;2022-12-18T00:03:58;13.30;;;9.33;;
12312;SDS011;6220;53.580;9.758;2022-12-18T00:06:25;14.57;;;10.17;;
12312;SDS011;6220;53.580;9.758;2022-12-18T00:08:51;19.37;;;9.87;;
12312;SDS011;6220;53.580;9.758;2022-12-18T00:11:20;15.30;;;10.17;;
12312;SDS011;6220;53.580;9.758;2022-12-18T00:13:47;14.47;;;9.23;;
12312;SDS011;6220;53.580;9.758;2022-12-18T00:16:15;11.63;;;9.07;;
12312;SDS011;6220;53.580;9.758;2022-12-18T00:18:50;17.10;;;10.20;;
12312;SDS011;6220;53.580;9.758;2022-12-18T00:21:18;16.73;;;10.27;;
12312;SDS011;6220;53.580;9.758;2022-12-18T00:23:45;13.93;;;10.13;;
12312;SDS011;6220;53.580;9.758;2022-12-18T00:26:12;13.93;;;9.13;;
12312;SDS011;6220;53.580;9.758;2022-12-18T00:28:40;12.87;;;9.93;;
12312;SDS011;6220;53.580;9.758;2022-12-18T00:31:14;13.50;;;10.10;;
12312;SDS011;6220;53.580;9.758;2022-12-18T00:33:40;15.60;;;9.33;;
12312;SDS011;6220;53.580;9.758;2022-12-18T00:36:07;12.30;;;9.27;;
12312;SDS011;6220;53.580;9.758;2022-12-18T00:38:50;14.77;;;9.47;;
12312;SDS011;6220;53.580;9.758;2022-12-18T00:41:19;14.63;;;10.13;;
12312;SDS011;6220;53.580;9.758;2022-12-18T00:44:04;14.07;;;10.17;;
12312;SDS011;6220;53.580;9.758;2022-12-18T00:46:31;13.57;;;9.47;;
12312;SDS011;6220;53.580;9.758;2022-12-18T00:48:57;14.57;;;9.97;;
12312;SDS011;6220;53.580;9.758;2022-12-18T00:51:23;14.67;;;10.07;;
12312;SDS011;6220;53.580;9.758;2022-12-18T00:53:48;15.67;;;10.33;;
12312;SDS011;6220;53.580;9.758;2022-12-18T00:56:14;14.90;;;9.77;;
12312;SDS011;6220;53.580;9.758;2022-12-18T00:58:40;17.07;;;10.07;;
12312;SDS011;6220;53.580;9.758;2022-12-18T01:01:05;22.47;;;10.13;;
12312;SDS011;6220;53.580;9.758;2022-12-18T01:03:34;14.60;;;9.77;;
12312;SDS011;6220;53.580;9.758;2022-12-18T01:06:04;13.20;;;9.47;;
12312;SDS011;6220;53.580;9.758;2022-12-18T01:08:34;18.07;;;10.10;;
12312;SDS011;6220;53.580;9.758;2022-12-18T01:11:01;15.37;;;10.47;;
12312;SDS011;6220;53.580;9.758;2022-12-18T01:13:32;16.07;;;9.27;;
12312;SDS011;6220;53.580;9.758;2022-12-18T01:16:00;16.00;;;10.40;;
12312;SDS011;6220;53.580;9.758;2022-12-18T01:18:25;12.77;;;9.73;;
12312;SDS011;6220;53.580;9.758;2022-12-18T01:20:53;12.57;;;8.50;;
12312;SDS011;6220;53.580;9.758;2022-12-18T01:23:18;16.13;;;10.63;;
12312;SDS011;6220;53.580;9.758;2022-12-18T01:25:44;19.53;;;10.43;;
12312;SDS011;6220;53.580;9.758;2022-12-18T01:28:09;18.00;;;10.73;;
12312;SDS011;6220;53.580;9.758;2022-12-18T01:30:37;14.83;;;9.83;;
12312;SDS011;6220;53.580;9.758;2022-12-18T01:33:06;14.67;;;9.00;;
12312;SDS011;6220;53.580;9.758;2022-12-18T01:35:32;15.40;;;10.03;;
12312;SDS011;6220;53.580;9.758;2022-12-18T01:38:01;15.70;;;9.53;;
12312;SDS011;6220;53.580;9.758;2022-12-18T01:40:27;15.57;;;9.50;;
12312;SDS011;6220;53.580;9.758;2022-12-18T01:42:52;13.87;;;10.13;;
12312;SDS011;6220;53.580;9.758;2022-12-18T01:47:45;15.77;;;9.47;;
12312;SDS011;6220;53.580;9.758;2022-12-18T01:50:37;13.60;;;9.83;;
12312;SDS011;6220;53.580;9.758;2022-12-18T01:53:07;14.97;;;9.83;;
12312;SDS011;6220;53.580;9.758;2022-12-18T01:55:37;12.73;;;9.83;;
12312;SDS011;6220;53.580;9.758;2022-12-18T01:58:06;15.23;;;9.50;;
12312;SDS011;6220;53.580;9.758;2022-12-18T02:00:31;15.20;;;9.87;;
12312;SDS011;6220;53.580;9.758;2022-12-18T02:02:58;14.23;;;9.60;;
12312;SDS011;6220;53.580;9.758;2022-12-18T02:05:34;14.93;;;9.30;;
12312;SDS011;6220;53.580;9.758;2022-12-18T02:11:01;13.93;;;8.97;;
12312;SDS011;6220;53.580;9.758;2022-12-18T02:13:44;14.03;;;8.90;;
12312;SDS011;6220;53.580;9.758;2022-12-18T02:16:20;15.93;;;9.30;;
12312;SDS011;6220;53.580;9.758;2022-12-18T02:18:49;12.27;;;8.83;;
12312;SDS011;6220;53.580;9.758;2022-12-18T02:26:45;13.43;;;9.87;;
12312;SDS011;6220;53.580;9.758;2022-12-18T02:29:16;15.83;;;9.23;;
12312;SDS011;6220;53.580;9.758;2022-12-18T02:31:45;17.47;;;10.20;;
12312;SDS011;6220;53.580;9.758;2022-12-18T02:34:14;14.87;;;10.23;;
12312;SDS011;6220;53.580;9.758;2022-12-18T02:36:43;15.17;;;9.83;;
12312;SDS011;6220;53.580;9.758;2022-12-18T02:39:14;14.60;;;9.80;;
12312;SDS011;6220;53.580;9.758;2022-12-18T02:41:42;15.00;;;9.63;;
12312;SDS011;6220;53.580;9.758;2022-12-18T02:44:09;12.67;;;9.43;;
12312;SDS011;6220;53.580;9.758;2022-12-18T02:46:40;16.80;;;10.10;;
12312;SDS011;6220;53.580;9.758;2022-12-18T02:49:26;14.53;;;9.47;;
12312;SDS011;6220;53.580;9.758;2022-12-18T02:52:05;16.17;;;9.47;;
12312;SDS011;6220;53.580;9.758;2022-12-18T02:57:33;14.50;;;8.97;;
12312;SDS011;6220;53.580;9.758;2022-12-18T03:00:06;15.60;;;9.40;;
12312;SDS011;6220;53.580;9.758;2022-12-18T03:02:37;17.77;;;9.50;;
12312;SDS011;6220;53.580;9.758;2022-12-18T03:05:19;16.00;;;9.67;;
12312;SDS011;6220;53.580;9.758;2022-12-18T03:07:49;12.30;;;8.60;;
12312;SDS011;6220;53.580;9.758;2022-12-18T03:10:42;13.47;;;9.33;;
12312;SDS011;6220;53.580;9.758;2022-12-18T03:13:37;14.37;;;9.13;;
12312;SDS011;6220;53.580;9.758;2022-12-18T03:16:05;15.67;;;9.57;;
12312;SDS011;6220;53.580;9.758;2022-12-18T03:18:33;17.37;;;10.03;;
12312;SDS011;6220;53.580;9.758;2022-12-18T03:21:04;12.53;;;9.07;;
12312;SDS011;6220;53.580;9.758;2022-12-18T03:23:32;13.37;;;9.73;;
12312;SDS011;6220;53.580;9.758;2022-12-18T03:26:01;13.83;;;9.57;;
12312;SDS011;6220;53.580;9.758;2022-12-18T03:28:30;14.40;;;9.00;;
12312;SDS011;6220;53.580;9.758;2022-12-18T03:30:59;15.10;;;9.03;;
12312;SDS011;6220;53.580;9.758;2022-12-18T03:33:26;16.23;;;9.37;;
12312;SDS011;6220;53.580;9.758;2022-12-18T03:35:55;15.73;;;9.13;;
12312;SDS011;6220;53.580;9.758;2022-12-18T03:38:20;13.30;;;8.33;;
12312;SDS011;6220;53.580;9.758;2022-12-18T03:40:50;15.20;;;8.50;;
12312;SDS011;6220;53.580;9.758;2022-12-18T03:46:24;14.37;;;8.63;;
12312;SDS011;6220;53.580;9.758;2022-12-18T03:54:56;11.93;;;8.30;;
12312;SDS011;6220;53.580;9.758;2022-12-18T03:57:24;11.33;;;8.47;;
12312;SDS011;6220;53.580;9.758;2022-12-18T03:59:57;12.73;;;9.53;;
12312;SDS011;6220;53.580;9.758;2022-12-18T04:02:25;11.90;;;8.63;;
12312;SDS011;6220;53.580;9.758;2022-12-18T04:04:55;15.30;;;8.20;;
12312;SDS011;6220;53.580;9.758;2022-12-18T04:07:23;13.47;;;8.50;;
12312;SDS011;6220;53.580;9.758;2022-12-18T04:09:50;13.87;;;9.27;;
12312;SDS011;6220;53.580;9.758;2022-12-18T04:12:19;11.00;;;8.73;;
12312;SDS011;6220;53.580;9.758;2022-12-18T04:14:44;13.60;;;8.80;;
12312;SDS011;6220;53.580;9.758;2022-12-18T04:17:09;14.87;;;9.00;;
12312;SDS011;6220;53.580;9.758;2022-12-18T04:19:35;14.33;;;8.60;;
12312;SDS011;6220;53.580;9.758;2022-12-18T04:22:01;14.03;;;8.67;;
12312;SDS011;6220;53.580;9.758;2022-12-18T04:24:27;11.87;;;8.73;;
12312;SDS011;6220;53.580;9.758;2022-12-18T04:26:52;12.83;;;8.43;;
12312;SDS011;6220;53.580;9.758;2022-12-18T04:29:18;13.57;;;9.00;;
12312;SDS011;6220;53.580;9.758;2022-12-18T04:35:06;11.00;;;7.77;;
12312;SDS011;6220;53.580;9.758;2022-12-18T04:37:35;13.67;;;8.33;;
12312;SDS011;6220;53.580;9.758;2022-12-18T04:40:01;12.03;;;7.70;;
12312;SDS011;6220;53.580;9.758;2022-12-18T04:42:26;11.00;;;7.47;;
12312;SDS011;6220;53.580;9.758;2022-12-18T04:44:52;15.07;;;8.37;;
12312;SDS011;6220;53.580;9.758;2022-12-18T04:47:17;11.03;;;7.53;;
12312;SDS011;6220;53.580;9.758;2022-12-18T04:49:43;12.23;;;7.90;;
12312;SDS011;6220;53.580;9.758;2022-12-18T04:52:08;13.07;;;7.67;;
12312;SDS011;6220;53.580;9.758;2022-12-18T04:54:33;9.53;;;7.17;;
12312;SDS011;6220;53.580;9.758;2022-12-18T04:57:00;12.20;;;7.53;;
12312;SDS011;6220;53.580;9.758;2022-12-18T04:59:25;13.53;;;7.43;;
12312;SDS011;6220;53.580;9.758;2022-12-18T05:01:50;10.30;;;7.30;;
12312;SDS011;6220;53.580;9.758;2022-12-18T05:04:16;14.77;;;8.07;;
12312;SDS011;6220;53.580;9.758;2022-12-18T05:06:41;10.20;;;7.40;;
12312;SDS011;6220;53.580;9.758;2022-12-18T05:09:06;11.33;;;7.43;;
12312;SDS011;6220;53.580;9.758;2022-12-18T05:11:33;16.03;;;7.63;;
12312;SDS011;6220;53.580;9.758;2022-12-18T05:14:01;11.07;;;8.00;;
12312;SDS011;6220;53.580;9.758;2022-12-18T05:16:26;8.63;;;7.03;;
12312;SDS011;6220;53.580;9.758;2022-12-18T05:18:51;10.67;;;7.13;;
12312;SDS011;6220;53.580;9.758;2022-12-18T05:21:17;9.60;;;7.03;;
12312;SDS011;6220;53.580;9.758;2022-12-18T05:23:43;9.57;;;6.53;;
12312;SDS011;6220;53.580;9.758;2022-12-18T05:26:15;11.43;;;6.80;;
12312;SDS011;6220;53.580;9.758;2022-12-18T05:28:42;10.77;;;7.27;;
12312;SDS011;6220;53.580;9.758;2022-12-18T05:31:07;10.07;;;7.50;;
12312;SDS011;6220;53.580;9.758;2022-12-18T05:33:33;9.53;;;6.47;;
12312;SDS011;6220;53.580;9.758;2022-12-18T05:36:00;11.20;;;7.30;;
12312;SDS011;6220;53.580;9.758;2022-12-18T05:38:29;11.43;;;6.83;;
12312;SDS011;6220;53.580;9.758;2022-12-18T05:40:55;11.57;;;7.23;;
12312;SDS011;6220;53.580;9.758;2022-12-18T05:43:21;8.83;;;6.47;;
12312;SDS011;6220;53.580;9.758;2022-12-18T05:45:47;9.73;;;7.30;;
12312;SDS011;6220;53.580;9.758;2022-12-18T05:48:14;9.83;;;6.53;;
12312;SDS011;6220;53.580;9.758;2022-12-18T05:50:41;10.60;;;6.93;;
12312;SDS011;6220;53.580;9.758;2022-12-18T05:53:07;14.43;;;7.07;;
12312;SDS011;6220;53.580;9.758;2022-12-18T05:55:33;9.17;;;7.23;;
12312;SDS011;6220;53.580;9.758;2022-12-18T05:58:02;11.00;;;7.67;;
12312;SDS011;6220;53.580;9.758;2022-12-18T06:00:28;11.60;;;7.13;;
12312;SDS011;6220;53.580;9.758;2022-12-18T06:02:53;11.40;;;7.33;;
12312;SDS011;6220;53.580;9.758;2022-12-18T06:05:19;11.03;;;7.33;;
12312;SDS011;6220;53.580;9.758;2022-12-18T06:07:44;10.97;;;7.30;;
12312;SDS011;6220;53.580;9.758;2022-12-18T06:10:11;10.20;;;6.97;;
12312;SDS011;6220;53.580;9.758;2022-12-18T06:12:37;9.47;;;7.03;;
12312;SDS011;6220;53.580;9.758;2022-12-18T06:15:02;9.73;;;6.80;;
12312;SDS011;6220;53.580;9.758;2022-12-18T06:17:32;8.13;;;6.50;;
12312;SDS011;6220;53.580;9.758;2022-12-18T06:19:57;10.50;;;7.00;;
12312;SDS011;6220;53.580;9.758;2022-12-18T06:22:23;13.60;;;7.83;;
12312;SDS011;6220;53.580;9.758;2022-12-18T06:24:49;9.23;;;6.37;;
12312;SDS011;6220;53.580;9.758;2022-12-18T06:27:14;9.40;;;6.77;;
12312;SDS011;6220;53.580;9.758;2022-12-18T06:29:40;10.77;;;6.30;;
12312;SDS011;6220;53.580;9.758;2022-12-18T06:32:05;11.60;;;6.93;;
12312;SDS011;6220;53.580;9.758;2022-12-18T06:34:30;11.47;;;7.07;;
12312;SDS011;6220;53.580;9.758;2022-12-18T06:36:56;9.57;;;6.20;;
12312;SDS011;6220;53.580;9.758;2022-12-18T06:39:21;12.73;;;6.77;;
12312;SDS011;6220;53.580;9.758;2022-12-18T06:41:46;11.13;;;7.63;;
12312;SDS011;6220;53.580;9.758;2022-12-18T06:44:12;13.43;;;7.30;;
12312;SDS011;6220;53.580;9.758;2022-12-18T06:46:38;10.20;;;6.37;;
12312;SDS011;6220;53.580;9.758;2022-12-18T06:49:05;14.03;;;6.93;;
12312;SDS011;6220;53.580;9.758;2022-12-18T06:51:31;11.87;;;6.60;;
12312;SDS011;6220;53.580;9.758;2022-12-18T06:53:57;9.23;;;6.60;;
12312;SDS011;6220;53.580;9.758;2022-12-18T06:56:22;9.83;;;7.17;;
12312;SDS011;6220;53.580;9.758;2022-12-18T06:58:49;11.57;;;6.60;;
12312;SDS011;6220;53.580;9.758;2022-12-18T07:01:14;11.93;;;6.53;;
12312;SDS011;6220;53.580;9.758;2022-12-18T07:03:40;10.67;;;7.10;;
12312;SDS011;6220;53.580;9.758;2022-12-18T07:06:05;11.27;;;6.77;;
12312;SDS011;6220;53.580;9.758;2022-12-18T07:08:31;10.10;;;6.93;;
12312;SDS011;6220;53.580;9.758;2022-12-18T07:10:57;10.60;;;6.90;;
12312;SDS011;6220;53.580;9.758;2022-12-18T07:13:41;10.80;;;6.30;;
12312;SDS011;6220;53.580;9.758;2022-12-18T07:16:14;13.17;;;6.57;;
12312;SDS011;6220;53.580;9.758;2022-12-18T07:18:41;8.40;;;6.07;;
12312;SDS011;6220;53.580;9.758;2022-12-18T07:21:07;10.20;;;6.40;;
12312;SDS011;6220;53.580;9.758;2022-12-18T07:23:34;10.63;;;6.20;;
12312;SDS011;6220;53.580;9.758;2022-12-18T07:26:06;11.03;;;5.87;;
12312;SDS011;6220;53.580;9.758;2022-12-18T07:28:33;9.90;;;6.47;;
12312;SDS011;6220;53.580;9.758;2022-12-18T07:31:03;12.63;;;6.43;;
12312;SDS011;6220;53.580;9.758;2022-12-18T07:33:29;9.40;;;6.47;;
12312;SDS011;6220;53.580;9.758;2022-12-18T07:35:54;11.27;;;6.33;;
12312;SDS011;6220;53.580;9.758;2022-12-18T07:38:20;11.00;;;6.60;;
12312;SDS011;6220;53.580;9.758;2022-12-18T07:40:45;10.10;;;6.13;;
12312;SDS011;6220;53.580;9.758;2022-12-18T07:43:12;8.63;;;5.60;;
12312;SDS011;6220;53.580;9.758;2022-12-18T07:45:37;8.73;;;6.40;;
12312;SDS011;6220;53.580;9.758;2022-12-18T07:48:03;12.00;;;6.60;;
12312;SDS011;6220;53.580;9.758;2022-12-18T07:50:28;10.47;;;6.30;;
12312;SDS011;6220;53.580;9.758;2022-12-18T07:52:54;10.73;;;6.27;;
12312;SDS011;6220;53.580;9.758;2022-12-18T07:55:19;10.80;;;6.23;;
12312;SDS011;6220;53.580;9.758;2022-12-18T07:57:45;10.33;;;6.50;;
12312;SDS011;6220;53.580;9.758;2022-12-18T08:00:10;10.00;;;6.20;;
12312;SDS011;6220;53.580;9.758;2022-12-18T08:02:37;8.20;;;6.10;;
12312;SDS011;6220;53.580;9.758;2022-12-18T08:05:02;14.17;;;6.13;;
12312;SDS011;6220;53.580;9.758;2022-12-18T08:07:28;8.63;;;5.87;;
12312;SDS011;6220;53.580;9.758;2022-12-18T08:09:53;7.50;;;5.70;;
12312;SDS011;6220;53.580;9.758;2022-12-18T08:12:19;11.13;;;6.33;;
12312;SDS011;6220;53.580;9.758;2022-12-18T08:14:45;9.90;;;5.70;;
12312;SDS011;6220;53.580;9.758;2022-12-18T08:17:10;9.93;;;6.50;;
12312;SDS011;6220;53.580;9.758;2022-12-18T08:19:35;9.27;;;6.03;;
12312;SDS011;6220;53.580;9.758;2022-12-18T08:22:01;11.63;;;5.90;;
12312;SDS011;6220;53.580;9.758;2022-12-18T08:24:26;8.00;;;5.63;;
12312;SDS011;6220;53.580;9.758;2022-12-18T08:26:52;9.00;;;6.17;;
12312;SDS011;6220;53.580;9.758;2022-12-18T08:29:17;7.73;;;5.70;;
12312;SDS011;6220;53.580;9.758;2022-12-18T08:31:42;11.27;;;7.33;;
12312;SDS011;6220;53.580;9.758;2022-12-18T08:34:08;14.63;;;6.83;;
12312;SDS011;6220;53.580;9.758;2022-12-18T08:36:33;7.23;;;5.47;;
12312;SDS011;6220;53.580;9.758;2022-12-18T08:39:00;7.37;;;5.73;;
12312;SDS011;6220;53.580;9.758;2022-12-18T08:41:25;9.73;;;6.13;;
12312;SDS011;6220;53.580;9.758;2022-12-18T08:43:52;8.17;;;5.50;;
12312;SDS011;6220;53.580;9.758;2022-12-18T08:46:40;8.40;;;5.43;;
12312;SDS011;6220;53.580;9.758;2022-12-18T08:49:06;9.93;;;5.87;;
12312;SDS011;6220;53.580;9.758;2022-12-18T08:51:33;10.63;;;5.77;;
12312;SDS011;6220;53.580;9.758;2022-12-18T08:53:59;8.70;;;5.47;;
12312;SDS011;6220;53.580;9.758;2022-12-18T08:56:25;9.70;;;5.80;;
12312;SDS011;6220;53.580;9.758;2022-12-18T08:58:51;11.33;;;5.77;;
12312;SDS011;6220;53.580;9.758;2022-12-18T09:01:18;7.97;;;5.73;;
12312;SDS011;6220;53.580;9.758;2022-12-18T09:03:49;9.03;;;6.10;;
12312;SDS011;6220;53.580;9.758;2022-12-18T09:06:19;9.10;;;6.07;;
12312;SDS011;6220;53.580;9.758;2022-12-18T09:08:45;8.97;;;5.37;;
12312;SDS011;6220;53.580;9.758;2022-12-18T09:11:29;9.47;;;6.03;;
12312;SDS011;6220;53.580;9.758;2022-12-18T09:13:55;7.87;;;5.97;;
12312;SDS011;6220;53.580;9.758;2022-12-18T09:16:20;9.33;;;6.10;;
12312;SDS011;6220;53.580;9.758;2022-12-18T09:18:47;8.60;;;5.83;;
12312;SDS011;6220;53.580;9.758;2022-12-18T09:21:13;16.23;;;9.87;;
12312;SDS011;6220;53.580;9.758;2022-12-18T09:23:41;11.77;;;6.17;;
12312;SDS011;6220;53.580;9.758;2022-12-18T09:26:07;7.07;;;5.07;;
12312;SDS011;6220;53.580;9.758;2022-12-18T09:28:32;8.80;;;6.13;;
12312;SDS011;6220;53.580;9.758;2022-12-18T09:30:57;7.63;;;6.00;;
12312;SDS011;6220;53.580;9.758;2022-12-18T09:33:23;9.20;;;6.30;;
12312;SDS011;6220;53.580;9.758;2022-12-18T09:35:48;12.33;;;6.33;;
12312;SDS011;6220;53.580;9.758;2022-12-18T09:38:15;9.30;;;5.60;;
12312;SDS011;6220;53.580;9.758;2022-12-18T09:40:43;11.03;;;6.20;;
12312;SDS011;6220;53.580;9.758;2022-12-18T09:43:19;11.03;;;7.23;;
12312;SDS011;6220;53.580;9.758;2022-12-18T09:45:55;8.60;;;6.17;;
12312;SDS011;6220;53.580;9.758;2022-12-18T09:48:26;9.53;;;5.77;;
12312;SDS011;6220;53.580;9.758;2022-12-18T09:50:57;9.47;;;6.37;;
12312;SDS011;6220;53.580;9.758;2022-12-18T09:53:28;15.60;;;5.97;;
12312;SDS011;6220;53.580;9.758;2022-12-18T09:55:59;12.73;;;6.43;;
12312;SDS011;6220;53.580;9.758;2022-12-18T09:58:32;12.67;;;6.17;;
12312;SDS011;6220;53.580;9.758;2022-12-18T10:00:59;10.97;;;6.50;;
12312;SDS011;6220;53.580;9.758;2022-12-18T10:03:24;7.70;;;5.80;;
12312;SDS011;6220;53.580;9.758;2022-12-18T10:06:05;8.43;;;6.33;;
12312;SDS011;6220;53.580;9.758;2022-12-18T10:08:42;9.87;;;6.53;;
12312;SDS011;6220;53.580;9.758;2022-12-18T10:11:21;8.83;;;6.40;;
12312;SDS011;6220;53.580;9.758;2022-12-18T10:14:06;9.33;;;6.43;;
12312;SDS011;6220;53.580;9.758;2022-12-18T10:16:43;9.63;;;6.90;;
12312;SDS011;6220;53.580;9.758;2022-12-18T10:19:34;9.90;;;6.57;;
12312;SDS011;6220;53.580;9.758;2022-12-18T10:22:23;8.70;;;6.90;;
12312;SDS011;6220;53.580;9.758;2022-12-18T10:25:03;11.63;;;7.03;;
12312;SDS011;6220;53.580;9.758;2022-12-18T10:27:30;12.63;;;7.30;;
12312;SDS011;6220;53.580;9.758;2022-12-18T10:29:56;8.90;;;6.87;;
12312;SDS011;6220;53.580;9.758;2022-12-18T10:32:23;12.13;;;7.07;;
12312;SDS011;6220;53.580;9.758;2022-12-18T10:34:53;12.37;;;7.20;;
12312;SDS011;6220;53.580;9.758;2022-12-18T10:37:21;11.80;;;6.70;;
12312;SDS011;6220;53.580;9.758;2022-12-18T10:40:04;8.73;;;6.53;;
12312;SDS011;6220;53.580;9.758;2022-12-18T10:42:33;9.43;;;6.33;;
12312;SDS011;6220;53.580;9.758;2022-12-18T10:45:01;8.03;;;6.20;;
12312;SDS011;6220;53.580;9.758;2022-12-18T10:47:41;7.43;;;6.13;;
12312;SDS011;6220;53.580;9.758;2022-12-18T10:53:14;7.87;;;6.60;;
12312;SDS011;6220;53.580;9.758;2022-12-18T10:55:44;11.53;;;6.60;;
12312;SDS011;6220;53.580;9.758;2022-12-18T10:58:29;11.43;;;6.83;;
12312;SDS011;6220;53.580;9.758;2022-12-18T11:01:12;10.03;;;6.80;;
12312;SDS011;6220;53.580;9.758;2022-12-18T11:03:42;8.60;;;6.23;;
12312;SDS011;6220;53.580;9.758;2022-12-18T11:06:19;9.73;;;6.50;;
12312;SDS011;6220;53.580;9.758;2022-12-18T11:09:03;8.13;;;6.20;;
12312;SDS011;6220;53.580;9.758;2022-12-18T11:11:29;8.60;;;6.53;;
12312;SDS011;6220;53.580;9.758;2022-12-18T11:14:04;8.90;;;6.23;;
12312;SDS011;6220;53.580;9.758;2022-12-18T11:16:33;8.53;;;6.00;;
12312;SDS011;6220;53.580;9.758;2022-12-18T11:21:43;8.47;;;5.83;;
12312;SDS011;6220;53.580;9.758;2022-12-18T11:24:17;7.83;;;5.90;;
12312;SDS011;6220;53.580;9.758;2022-12-18T11:26:55;9.97;;;6.63;;
12312;SDS011;6220;53.580;9.758;2022-12-18T11:29:23;9.13;;;6.63;;
12312;SDS011;6220;53.580;9.758;2022-12-18T11:37:57;8.47;;;5.83;;
12312;SDS011;6220;53.580;9.758;2022-12-18T11:40:27;10.97;;;6.67;;
12312;SDS011;6220;53.580;9.758;2022-12-18T11:43:02;7.80;;;6.07;;
12312;SDS011;6220;53.580;9.758;2022-12-18T11:45:34;12.20;;;6.40;;
12312;SDS011;6220;53.580;9.758;2022-12-18T11:50:56;8.97;;;6.40;;
12312;SDS011;6220;53.580;9.758;2022-12-18T11:53:25;9.97;;;6.67;;
12312;SDS011;6220;53.580;9.758;2022-12-18T11:58:40;7.77;;;6.47;;
12312;SDS011;6220;53.580;9.758;2022-12-18T12:12:26;8.43;;;6.50;;
12312;SDS011;6220;53.580;9.758;2022-12-18T12:18:19;9.93;;;6.43;;
12312;SDS011;6220;53.580;9.758;2022-12-18T12:21:03;11.43;;;6.80;;
12312;SDS011;6220;53.580;9.758;2022-12-18T12:26:06;8.20;;;6.23;;
12312;SDS011;6220;53.580;9.758;2022-12-18T12:34:24;10.57;;;6.60;;
12312;SDS011;6220;53.580;9.758;2022-12-18T12:39:59;11.00;;;7.13;;
12312;SDS011;6220;53.580;9.758;2022-12-18T12:42:34;10.57;;;6.27;;
12312;SDS011;6220;53.580;9.758;2022-12-18T12:45:33;9.07;;;6.37;;
12312;SDS011;6220;53.580;9.758;2022-12-18T12:48:01;9.87;;;6.73;;
12312;SDS011;6220;53.580;9.758;2022-12-18T12:50:27;9.53;;;6.47;;
12312;SDS011;6220;53.580;9.758;2022-12-18T12:52:54;10.63;;;7.00;;
12312;SDS011;6220;53.580;9.758;2022-12-18T12:55:21;7.90;;;6.23;;
12312;SDS011;6220;53.580;9.758;2022-12-18T12:57:51;9.50;;;6.67;;
12312;SDS011;6220;53.580;9.758;2022-12-18T13:00:20;10.00;;;6.67;;
12312;SDS011;6220;53.580;9.758;2022-12-18T13:06:12;10.73;;;6.67;;
12312;SDS011;6220;53.580;9.758;2022-12-18T13:08:51;9.17;;;7.20;;
12312;SDS011;6220;53.580;9.758;2022-12-18T13:11:34;9.60;;;6.90;;
12312;SDS011;6220;53.580;9.758;2022-12-18T13:14:24;10.77;;;7.13;;
12312;SDS011;6220;53.580;9.758;2022-12-18T13:17:16;16.57;;;7.63;;
12312;SDS011;6220;53.580;9.758;2022-12-18T13:19:42;12.53;;;8.17;;
12312;SDS011;6220;53.580;9.758;2022-12-18T13:22:21;9.40;;;6.97;;
12312;SDS011;6220;53.580;9.758;2022-12-18T13:24:48;11.27;;;7.67;;
12312;SDS011;6220;53.580;9.758;2022-12-18T13:40:56;14.03;;;8.20;;
12312;SDS011;6220;53.580;9.758;2022-12-18T13:43:33;13.20;;;9.60;;
12312;SDS011;6220;53.580;9.758;2022-12-18T13:48:57;16.80;;;10.30;;
12312;SDS011;6220;53.580;9.758;2022-12-18T13:51:26;16.70;;;10.23;;
12312;SDS011;6220;53.580;9.758;2022-12-18T13:53:54;15.73;;;10.50;;
12312;SDS011;6220;53.580;9.758;2022-12-18T13:56:24;14.47;;;11.17;;
12312;SDS011;6220;53.580;9.758;2022-12-18T14:01:46;21.90;;;12.23;;
12312;SDS011;6220;53.580;9.758;2022-12-18T14:04:23;17.60;;;11.87;;
12312;SDS011;6220;53.580;9.758;2022-12-18T14:06:54;16.67;;;10.53;;
12312;SDS011;6220;53.580;9.758;2022-12-18T14:09:26;16.40;;;10.50;;
12312;SDS011;6220;53.580;9.758;2022-12-18T14:11:53;18.47;;;10.33;;
12312;SDS011;6220;53.580;9.758;2022-12-18T14:14:45;14.60;;;9.80;;
12312;SDS011;6220;53.580;9.758;2022-12-18T14:17:12;20.13;;;12.20;;
12312;SDS011;6220;53.580;9.758;2022-12-18T14:19:42;16.00;;;10.17;;
12312;SDS011;6220;53.580;9.758;2022-12-18T14:22:26;16.83;;;10.50;;
12312;SDS011;6220;53.580;9.758;2022-12-18T14:28:15;17.23;;;11.13;;
12312;SDS011;6220;53.580;9.758;2022-12-18T14:30:42;18.73;;;12.00;;
12312;SDS011;6220;53.580;9.758;2022-12-18T14:35:37;23.83;;;13.57;;
12312;SDS011;6220;53.580;9.758;2022-12-18T14:40:45;25.33;;;14.60;;
12312;SDS011;6220;53.580;9.758;2022-12-18T14:43:12;22.83;;;13.70;;
12312;SDS011;6220;53.580;9.758;2022-12-18T14:45:41;24.97;;;15.13;;
12312;SDS011;6220;53.580;9.758;2022-12-18T14:48:08;22.03;;;14.10;;
12312;SDS011;6220;53.580;9.758;2022-12-18T14:50:39;25.33;;;14.47;;
12312;SDS011;6220;53.580;9.758;2022-12-18T14:53:04;23.03;;;13.67;;
12312;SDS011;6220;53.580;9.758;2022-12-18T14:55:32;28.63;;;15.47;;
12312;SDS011;6220;53.580;9.758;2022-12-18T14:57:58;25.23;;;15.60;;
12312;SDS011;6220;53.580;9.758;2022-12-18T15:00:24;21.53;;;13.97;;
12312;SDS011;6220;53.580;9.758;2022-12-18T15:02:54;25.37;;;15.63;;
12312;SDS011;6220;53.580;9.758;2022-12-18T15:05:29;24.07;;;14.90;;
12312;SDS011;6220;53.580;9.758;2022-12-18T15:07:57;27.73;;;15.77;;
12312;SDS011;6220;53.580;9.758;2022-12-18T15:10:27;26.37;;;16.33;;
12312;SDS011;6220;53.580;9.758;2022-12-18T15:20:43;24.10;;;14.57;;
12312;SDS011;6220;53.580;9.758;2022-12-18T15:23:14;26.23;;;15.60;;
12312;SDS011;6220;53.580;9.758;2022-12-18T15:26:00;27.50;;;16.47;;
12312;SDS011;6220;53.580;9.758;2022-12-18T15:28:37;25.67;;;15.90;;
12312;SDS011;6220;53.580;9.758;2022-12-18T15:33:41;29.50;;;17.03;;
12312;SDS011;6220;53.580;9.758;2022-12-18T15:36:11;26.67;;;15.63;;
12312;SDS011;6220;53.580;9.758;2022-12-18T15:38:38;28.17;;;16.83;;
12312;SDS011;6220;53.580;9.758;2022-12-18T15:41:04;26.93;;;15.43;;
12312;SDS011;6220;53.580;9.758;2022-12-18T15:43:32;29.50;;;17.63;;
12312;SDS011;6220;53.580;9.758;2022-12-18T15:48:27;28.73;;;17.33;;
12312;SDS011;6220;53.580;9.758;2022-12-18T15:50:53;29.50;;;16.13;;
12312;SDS011;6220;53.580;9.758;2022-12-18T15:53:21;29.73;;;17.47;;
12312;SDS011;6220;53.580;9.758;2022-12-18T15:55:47;28.97;;;17.23;;
12312;SDS011;6220;53.580;9.758;2022-12-18T15:58:33;25.87;;;17.07;;
12312;SDS011;6220;53.580;9.758;2022-12-18T16:00:58;29.83;;;17.40;;
12312;SDS011;6220;53.580;9.758;2022-12-18T16:03:24;31.97;;;18.33;;
12312;SDS011;6220;53.580;9.758;2022-12-18T16:05:49;32.33;;;18.43;;
12312;SDS011;6220;53.580;9.758;2022-12-18T16:08:15;28.77;;;17.90;;
12312;SDS011;6220;53.580;9.758;2022-12-18T16:10:40;29.27;;;17.53;;
12312;SDS011;6220;53.580;9.758;2022-12-18T16:13:06;31.20;;;17.60;;
12312;SDS011;6220;53.580;9.758;2022-12-18T16:15:35;30.90;;;16.77;;
12312;SDS011;6220;53.580;9.758;2022-12-18T16:18:01;29.87;;;17.23;;
12312;SDS011;6220;53.580;9.758;2022-12-18T16:20:27;32.57;;;17.33;;
12312;SDS011;6220;53.580;9.758;2022-12-18T16:22:52;30.67;;;17.33;;
12312;SDS011;6220;53.580;9.758;2022-12-18T16:27:51;31.03;;;17.57;;
12312;SDS011;6220;53.580;9.758;2022-12-18T16:30:20;36.40;;;18.10;;
12312;SDS011;6220;53.580;9.758;2022-12-18T16:32:57;34.47;;;18.03;;
12312;SDS011;6220;53.580;9.758;2022-12-18T16:35:23;31.67;;;18.73;;
12312;SDS011;6220;53.580;9.758;2022-12-18T16:37:49;29.87;;;17.37;;
12312;SDS011;6220;53.580;9.758;2022-12-18T16:40:15;26.37;;;16.50;;
12312;SDS011;6220;53.580;9.758;2022-12-18T16:42:44;32.93;;;18.27;;
12312;SDS011;6220;53.580;9.758;2022-12-18T16:45:11;32.40;;;17.97;;
12312;SDS011;6220;53.580;9.758;2022-12-18T16:47:37;34.63;;;18.13;;
12312;SDS011;6220;53.580;9.758;2022-12-18T16:50:04;31.57;;;17.33;;
12312;SDS011;6220;53.580;9.758;2022-12-18T16:52:29;31.10;;;17.07;;
12312;SDS011;6220;53.580;9.758;2022-12-18T16:54:56;38.33;;;17.60;;
12312;SDS011;6220;53.580;9.758;2022-12-18T16:57:21;31.23;;;17.83;;